Time;durP1;ratioP1;P1;durP2;ratioP2;P2;SDS_P1;SDS_P2;PMS_P1;PMS_P2;Temp;Humidity;BMP_temperature;BMP_pressure;BME280_temperature;BME280_humidity;BME280_pressure;Samples;Min_cycle;Max_cycle;Signal;HPM_P1;HPM_P2
2022/07/30 00:01:59;;;;;;;6.20;4.95;;;19.20;6.10;;;;;;7369813;19;20017;-66
2022/07/30 00:04:31;;;;;;;6.78;5.32;;;19.20;6.50;;;;;;7361600;19;20018;-66
2022/07/30 00:07:02;;;;;;;9.70;6.15;;;19.10;5.50;;;;;;7377253;19;20645;-66
2022/07/30 00:09:34;;;;;;;8.38;5.70;;;19.00;6.20;;;;;;7391035;19;20022;-67
2022/07/30 00:12:05;;;;;;;6.30;5.65;;;19.00;7.00;;;;;;7366245;19;20481;-65
2022/07/30 00:14:36;;;;;;;6.15;5.20;;;19.00;6.40;;;;;;7360802;19;20074;-67
2022/07/30 00:17:09;;;;;;;5.72;5.10;;;19.00;5.80;;;;;;7366209;19;20482;-66
2022/07/30 00:19:39;;;;;;;8.00;4.93;;;18.90;4.70;;;;;;7368619;19;20014;-66
2022/07/30 00:22:09;;;;;;;6.47;5.03;;;18.90;2.50;;;;;;7366472;19;20010;-67
2022/07/30 00:24:39;;;;;;;5.47;4.20;;;18.80;2.50;;;;;;7380905;19;20022;-66
2022/07/30 00:27:14;;;;;;;5.65;4.53;;;18.80;1.60;;;;;;7365685;19;20058;-67
2022/07/30 00:29:45;;;;;;;5.05;4.00;;;18.70;2.40;;;;;;7367231;19;20486;-69
2022/07/30 00:32:18;;;;;;;4.75;4.28;;;18.70;1.30;;;;;;7365169;19;20070;-67
2022/07/30 00:34:48;;;;;;;4.78;4.07;;;18.70;1.00;;;;;;7361913;19;20499;-67
2022/07/30 00:37:18;;;;;;;5.65;4.88;;;18.70;1.70;;;;;;7365536;19;20366;-67
2022/07/30 00:39:52;;;;;;;5.80;4.38;;;18.70;1.30;;;;;;7390301;19;20018;-66
2022/07/30 00:42:41;;;;;;;4.75;4.32;;;18.70;1.00;;;;;;7362573;19;20009;-67
2022/07/30 00:45:12;;;;;;;6.05;4.18;;;18.70;1.00;;;;;;7363240;19;19999;-67
2022/07/30 00:47:46;;;;;;;5.50;3.63;;;18.60;1.00;;;;;;7364330;19;20019;-67
2022/07/30 00:50:17;;;;;;;3.95;3.55;;;18.50;1.00;;;;;;7368418;19;20007;-67
2022/07/30 00:52:47;;;;;;;5.43;4.05;;;18.40;1.50;;;;;;7362958;19;20375;-67
2022/07/30 00:55:17;;;;;;;6.20;3.70;;;18.50;1.00;;;;;;7363303;19;20027;-67
2022/07/30 00:57:47;;;;;;;4.18;3.78;;;18.50;1.00;;;;;;7384771;19;20023;-67
2022/07/30 01:00:20;;;;;;;4.70;3.80;;;18.50;1.00;;;;;;7366244;19;20018;-67
2022/07/30 01:02:56;;;;;;;4.13;3.67;;;18.40;1.00;;;;;;7360692;19;20106;-67
2022/07/30 01:05:26;;;;;;;6.03;4.32;;;18.40;1.00;;;;;;7361431;19;20039;-67
2022/07/30 01:07:59;;;;;;;5.88;4.30;;;18.40;1.00;;;;;;7364927;19;20119;-67
2022/07/30 01:10:30;;;;;;;6.30;4.68;;;18.30;1.00;;;;;;7366038;19;20011;-65
2022/07/30 01:13:00;;;;;;;4.68;4.03;;;18.30;1.20;;;;;;7383259;19;20038;-67
2022/07/30 01:15:31;;;;;;;7.15;4.50;;;18.30;1.30;;;;;;7384097;19;20112;-65
2022/07/30 01:18:07;;;;;;;6.45;4.93;;;18.30;1.00;;;;;;7363576;19;20108;-66
2022/07/30 01:20:42;;;;;;;4.32;3.90;;;18.30;1.00;;;;;;7366580;19;20066;-66
2022/07/30 01:23:24;;;;;;;5.55;4.22;;;18.40;1.00;;;;;;7361056;19;20363;-66
2022/07/30 01:26:00;;;;;;;4.80;4.13;;;18.30;1.00;;;;;;7365010;19;20034;-66
2022/07/30 01:28:34;;;;;;;4.60;4.20;;;18.30;1.00;;;;;;7365307;19;20006;-67
2022/07/30 01:31:05;;;;;;;5.50;4.20;;;18.30;1.00;;;;;;7367309;19;20085;-66
2022/07/30 01:33:38;;;;;;;5.43;4.28;;;18.20;1.50;;;;;;7379172;19;20030;-67
2022/07/30 01:36:10;;;;;;;4.65;4.20;;;18.30;1.00;;;;;;7372721;19;20446;-67
2022/07/30 01:38:42;;;;;;;5.78;4.53;;;18.20;1.00;;;;;;7379163;19;20010;-66
2022/07/30 01:41:16;;;;;;;5.05;4.55;;;18.20;1.00;;;;;;7380161;19;20467;-66
2022/07/30 01:43:48;;;;;;;6.03;4.53;;;18.30;1.00;;;;;;7371619;19;20014;-66
2022/07/30 01:46:20;;;;;;;5.70;4.50;;;18.30;1.00;;;;;;7378144;19;20038;-66
2022/07/30 01:48:50;;;;;;;6.47;4.97;;;18.30;1.00;;;;;;7400083;19;20002;-65
2022/07/30 01:51:21;;;;;;;5.18;4.65;;;18.30;1.00;;;;;;7380864;19;20026;-67
2022/07/30 01:53:53;;;;;;;5.30;4.22;;;18.30;1.00;;;;;;7371597;19;20031;-67
2022/07/30 01:56:27;;;;;;;8.00;4.72;;;18.30;1.00;;;;;;7377813;19;20020;-66
2022/07/30 01:58:59;;;;;;;4.65;3.92;;;18.30;1.00;;;;;;7379045;19;20449;-66
2022/07/30 02:01:29;;;;;;;5.38;4.53;;;18.30;1.00;;;;;;7380171;19;20374;-67
2022/07/30 02:04:01;;;;;;;5.28;4.18;;;18.30;1.00;;;;;;7393438;19;20104;-66
2022/07/30 02:06:36;;;;;;;6.68;4.05;;;18.30;1.00;;;;;;7377785;19;20015;-67
2022/07/30 02:09:08;;;;;;;8.00;4.10;;;18.30;1.00;;;;;;7378055;19;20086;-66
2022/07/30 02:14:33;;;;;;;5.05;4.20;;;18.10;1.00;;;;;;7371008;19;20027;-66
2022/07/30 02:17:06;;;;;;;6.63;3.72;;;18.20;1.00;;;;;;7377365;19;20019;-66
2022/07/30 02:19:50;;;;;;;4.63;3.78;;;18.20;1.00;;;;;;7380000;19;20043;-66
2022/07/30 02:22:22;;;;;;;4.85;4.07;;;18.20;1.00;;;;;;7376428;19;20020;-65
2022/07/30 02:24:53;;;;;;;5.18;4.30;;;18.20;1.00;;;;;;7396483;19;20526;-67
2022/07/30 02:27:29;;;;;;;5.13;4.15;;;18.20;1.00;;;;;;7376240;19;20090;-67
2022/07/30 02:30:02;;;;;;;5.65;4.35;;;18.10;1.00;;;;;;7377025;19;20010;-65
2022/07/30 02:32:36;;;;;;;6.75;4.10;;;18.10;1.00;;;;;;7372974;19;20437;-66
2022/07/30 02:35:10;;;;;;;;;;;18.20;1.00;;;;;;7375995;19;20086;-67
2022/07/30 02:37:41;;;;;;;5.10;4.38;;;18.20;1.00;;;;;;7375538;19;19919;-67
2022/07/30 02:40:17;;;;;;;6.93;4.68;;;18.30;1.00;;;;;;7378827;19;20081;-65
2022/07/30 02:42:51;;;;;;;;;;;18.20;1.00;;;;;;7395364;19;20014;-66
2022/07/30 02:45:23;;;;;;;5.20;4.20;;;18.10;1.00;;;;;;7374065;19;20000;-67
2022/07/30 02:47:56;;;;;;;7.28;4.85;;;18.20;1.00;;;;;;7370691;19;20006;-65
2022/07/30 02:50:28;;;;;;;5.13;4.53;;;18.20;1.00;;;;;;7369349;19;20118;-67
2022/07/30 02:53:00;;;;;;;4.72;4.32;;;18.20;1.00;;;;;;7366256;19;20523;-67
2022/07/30 02:55:34;;;;;;;5.28;3.95;;;18.30;1.00;;;;;;7369015;19;20018;-66
2022/07/30 02:58:08;;;;;;;7.72;4.65;;;18.30;1.00;;;;;;7370642;19;20046;-67
2022/07/30 03:00:40;;;;;;;5.15;4.60;;;18.20;1.00;;;;;;7392819;19;20485;-66
2022/07/30 03:03:11;;;;;;;7.78;5.13;;;18.20;1.00;;;;;;7364832;19;20018;-66
2022/07/30 03:05:42;;;;;;;5.18;4.28;;;18.20;1.00;;;;;;7368322;19;20416;-66
2022/07/30 03:08:14;;;;;;;8.73;4.50;;;18.10;1.00;;;;;;7369874;19;20014;-66
2022/07/30 03:10:50;;;;;;;5.53;4.70;;;18.10;1.00;;;;;;7368587;19;20014;-65
2022/07/30 03:13:23;;;;;;;7.72;4.53;;;18.20;1.00;;;;;;7363928;19;20470;-66
2022/07/30 03:15:54;;;;;;;5.05;4.32;;;18.10;1.00;;;;;;7391597;19;20044;-66
2022/07/30 03:18:29;;;;;;;6.30;4.13;;;18.10;1.00;;;;;;7368970;19;20454;-68
2022/07/30 03:21:01;;;;;;;6.50;4.40;;;18.10;1.00;;;;;;7370132;19;20014;-65
2022/07/30 03:23:36;;;;;;;6.72;4.63;;;18.10;1.00;;;;;;7360712;19;20007;-66
2022/07/30 03:26:09;;;;;;;6.25;5.18;;;18.10;1.00;;;;;;7369248;19;20010;-65
2022/07/30 03:28:42;;;;;;;8.57;5.18;;;18.10;1.00;;;;;;7370074;19;20007;-66
2022/07/30 03:31:12;;;;;;;5.47;4.70;;;18.10;1.00;;;;;;7368673;19;20171;-65
2022/07/30 03:33:44;;;;;;;7.07;4.82;;;18.00;1.00;;;;;;7383096;19;20081;-66
2022/07/30 03:36:16;;;;;;;6.28;4.72;;;18.10;1.00;;;;;;7368853;19;20034;-66
2022/07/30 03:38:47;;;;;;;6.00;4.40;;;18.10;1.00;;;;;;7368605;19;20074;-66
2022/07/30 03:41:17;;;;;;;6.03;4.80;;;18.00;1.00;;;;;;7369674;19;20950;-65
2022/07/30 03:43:51;;;;;;;6.35;4.68;;;18.00;1.00;;;;;;7359760;19;20461;-66
2022/07/30 03:46:22;;;;;;;7.28;5.13;;;18.10;1.00;;;;;;7369233;19;20067;-67
2022/07/30 03:48:54;;;;;;;5.63;4.93;;;18.10;1.00;;;;;;7390618;19;20351;-66
2022/07/30 03:51:24;;;;;;;6.93;4.78;;;18.10;1.00;;;;;;7366421;19;20007;-66
2022/07/30 03:54:02;;;;;;;8.45;5.15;;;18.20;1.00;;;;;;7358773;19;20010;-65
2022/07/30 03:56:32;;;;;;;6.15;4.75;;;18.20;1.00;;;;;;7368061;19;20066;-66
2022/07/30 03:59:05;;;;;;;11.70;5.40;;;18.20;1.00;;;;;;7367982;19;20078;-65
2022/07/30 04:01:35;;;;;;;6.32;4.70;;;18.20;1.00;;;;;;7369898;19;20463;-66
2022/07/30 04:04:09;;;;;;;6.95;4.82;;;18.30;1.00;;;;;;7360298;19;20023;-67
2022/07/30 04:06:41;;;;;;;6.03;5.05;;;18.30;1.00;;;;;;7388221;19;20006;-66
2022/07/30 04:09:14;;;;;;;9.13;4.95;;;18.30;1.00;;;;;;7366481;19;20470;-66
2022/07/30 04:11:44;;;;;;;8.25;5.40;;;18.30;1.00;;;;;;7368246;19;20519;-66
2022/07/30 04:14:16;;;;;;;7.03;5.30;;;18.40;1.00;;;;;;7359298;19;20081;-66
2022/07/30 04:16:51;;;;;;;6.78;4.88;;;18.50;1.00;;;;;;7367809;19;20299;-66
2022/07/30 04:19:26;;;;;;;4.80;4.30;;;19.10;1.00;;;;;;7368360;19;20098;-66
2022/07/30 04:21:58;;;;;;;4.72;4.30;;;19.50;1.00;;;;;;7390437;19;20053;-65
2022/07/30 04:24:29;;;;;;;9.48;5.10;;;20.00;1.00;;;;;;7360194;19;20090;-66
2022/07/30 04:27:00;;;;;;;6.00;4.57;;;20.10;1.00;;;;;;7366152;19;20475;-66
2022/07/30 04:29:34;;;;;;;7.43;5.00;;;20.30;1.00;;;;;;7368075;19;20017;-66
2022/07/30 04:32:04;;;;;;;5.38;4.88;;;20.90;1.00;;;;;;7368518;19;20003;-65
2022/07/30 04:34:34;;;;;;;7.80;4.32;;;21.10;1.00;;;;;;7360908;19;20009;-66
2022/07/30 04:37:05;;;;;;;6.13;4.35;;;21.50;1.00;;;;;;7366083;19;20351;-66
2022/07/30 04:39:35;;;;;;;9.48;4.70;;;22.00;1.00;;;;;;7390230;19;20015;-67
2022/07/30 04:42:05;;;;;;;7.22;4.93;;;22.00;1.00;;;;;;7366244;19;20012;-67
2022/07/30 04:44:37;;;;;;;10.63;4.72;;;22.20;1.00;;;;;;7361551;19;20053;-65
2022/07/30 04:47:07;;;;;;;6.68;4.72;;;22.20;1.00;;;;;;7365405;19;20114;-66
2022/07/30 04:49:38;;;;;;;10.30;6.05;;;22.20;1.00;;;;;;7367345;19;20502;-67
2022/07/30 04:52:09;;;;;;;6.55;4.88;;;23.00;1.00;;;;;;7365095;19;20007;-67
2022/07/30 04:54:42;;;;;;;7.00;5.13;;;23.00;1.00;;;;;;7383834;19;20047;-66
2022/07/30 04:57:14;;;;;;;4.80;4.30;;;22.90;1.00;;;;;;7365031;19;20446;-66
2022/07/30 04:59:47;;;;;;;5.53;4.70;;;22.90;1.00;;;;;;7367611;19;20055;-66
2022/07/30 05:02:19;;;;;;;7.63;5.15;;;22.70;1.00;;;;;;7362627;19;20031;-67
2022/07/30 05:04:50;;;;;;;8.02;5.40;;;23.40;1.00;;;;;;7363811;19;20006;-66
2022/07/30 05:07:21;;;;;;;6.05;4.63;;;23.60;1.00;;;;;;7364796;19;20484;-66
2022/07/30 05:09:51;;;;;;;6.38;5.10;;;23.80;1.00;;;;;;7387691;19;20066;-66
2022/07/30 05:12:21;;;;;;;7.05;4.70;;;24.10;1.00;;;;;;7361672;19;20450;-65
2022/07/30 05:14:53;;;;;;;8.88;4.85;;;23.40;1.00;;;;;;7362401;19;20006;-67
2022/07/30 05:17:23;;;;;;;6.93;4.63;;;24.10;1.00;;;;;;7366253;19;20073;-66
2022/07/30 05:19:53;;;;;;;5.70;4.38;;;24.40;1.00;;;;;;7366620;19;20014;-66
2022/07/30 05:22:24;;;;;;;6.95;4.47;;;25.20;1.00;;;;;;7361409;19;20073;-66
2022/07/30 05:24:54;;;;;;;8.52;4.70;;;25.20;1.00;;;;;;7384062;19;20018;-67
2022/07/30 05:27:24;;;;;;;7.22;4.93;;;25.50;1.00;;;;;;7364204;19;20003;-67
2022/07/30 05:29:56;;;;;;;6.47;4.72;;;25.80;1.00;;;;;;7366593;19;20082;-67
2022/07/30 05:32:26;;;;;;;6.82;5.05;;;24.60;1.00;;;;;;7359533;19;20044;-67
2022/07/30 05:35:00;;;;;;;6.32;4.57;;;23.40;1.00;;;;;;7361468;19;20048;-66
2022/07/30 05:37:31;;;;;;;6.47;5.22;;;23.80;1.00;;;;;;7362472;19;20038;-65
2022/07/30 05:40:01;;;;;;;6.35;4.70;;;25.00;1.00;;;;;;7372213;19;20009;-67
2022/07/30 05:42:32;;;;;;;8.80;5.13;;;24.20;1.00;;;;;;7381772;19;20467;-67
2022/07/30 05:45:05;;;;;;;5.88;4.35;;;25.40;1.00;;;;;;7361771;19;20007;-66
2022/07/30 05:47:35;;;;;;;10.30;5.28;;;25.90;1.00;;;;;;7363577;19;20076;-66
2022/07/30 05:50:05;;;;;;;7.35;4.88;;;24.00;1.00;;;;;;7366626;19;20010;-67
2022/07/30 05:52:36;;;;;;;8.35;5.10;;;23.70;1.00;;;;;;7356946;19;20385;-66
2022/07/30 05:55:06;;;;;;;7.28;4.75;;;24.70;1.00;;;;;;7362131;19;20014;-68
2022/07/30 05:57:37;;;;;;;6.22;4.40;;;25.70;1.00;;;;;;7384439;19;20015;-66
2022/07/30 06:00:12;;;;;;;6.00;4.75;;;25.70;1.00;;;;;;7364251;19;20011;-66
2022/07/30 06:02:42;;;;;;;6.07;4.63;;;23.40;1.00;;;;;;7359005;19;20078;-66
2022/07/30 06:05:12;;;;;;;5.53;4.55;;;22.10;1.00;;;;;;7361682;19;20013;-65
2022/07/30 06:07:42;;;;;;;8.55;4.72;;;22.10;1.00;;;;;;7362939;19;20019;-67
2022/07/30 06:10:11;;;;;;;9.98;4.95;;;22.00;1.00;;;;;;7365875;19;19998;-67
2022/07/30 06:12:42;;;;;;;6.68;4.60;;;21.80;1.00;;;;;;7378727;19;20022;-66
2022/07/30 06:15:14;;;;;;;6.25;4.80;;;21.90;1.00;;;;;;7361197;19;20009;-66
2022/07/30 06:17:50;;;;;;;6.90;4.82;;;21.30;1.00;;;;;;7363131;19;20014;-67
2022/07/30 06:20:33;;;;;;;;;;;21.70;1.00;;;;;;7365501;19;20097;-67
2022/07/30 06:23:03;;;;;;;7.05;4.35;;;22.20;1.00;;;;;;7362255;19;19990;-67
2022/07/30 06:25:33;;;;;;;5.93;4.45;;;22.60;1.00;;;;;;7368979;19;20013;-67
2022/07/30 06:28:03;;;;;;;6.43;4.75;;;21.80;1.00;;;;;;7370259;19;20526;-66
2022/07/30 06:30:56;;;;;;;7.35;4.65;;;22.00;1.00;;;;;;7393544;19;20015;-65
2022/07/30 06:33:26;;;;;;;8.45;4.63;;;21.70;1.00;;;;;;7364922;19;20010;-67
2022/07/30 06:35:55;;;;;;;9.27;4.75;;;22.30;1.00;;;;;;7371369;19;20002;-67
2022/07/30 06:38:26;;;;;;;6.35;4.72;;;23.30;1.00;;;;;;7370100;19;20007;-67
2022/07/30 06:40:55;;;;;;;6.32;4.43;;;23.00;1.00;;;;;;7371474;19;20025;-66
2022/07/30 06:43:31;;;;;;;8.88;4.88;;;23.10;1.00;;;;;;7362686;19;20017;-66
2022/07/30 06:46:04;;;;;;;7.90;5.00;;;22.40;1.00;;;;;;7377260;19;20034;-66
2022/07/30 06:48:35;;;;;;;4.90;4.07;;;21.60;1.00;;;;;;7391996;19;20046;-67
2022/07/30 06:51:05;;;;;;;7.85;4.90;;;22.10;1.00;;;;;;7368991;19;20114;-66
2022/07/30 06:53:35;;;;;;;6.93;4.60;;;22.00;1.00;;;;;;7361251;19;20547;-67
2022/07/30 06:56:11;;;;;;;8.18;4.63;;;22.10;1.00;;;;;;7369907;19;20010;-66
2022/07/30 06:58:43;;;;;;;6.35;4.40;;;22.30;1.00;;;;;;7369846;19;20081;-67
2022/07/30 07:01:15;;;;;;;7.57;5.05;;;22.50;1.00;;;;;;7371039;19;20052;-66
2022/07/30 07:03:45;;;;;;;7.13;4.60;;;22.50;1.00;;;;;;7382351;19;20118;-67
2022/07/30 07:06:15;;;;;;;8.27;4.65;;;22.70;1.00;;;;;;7368683;19;20010;-66
2022/07/30 07:08:45;;;;;;;6.65;4.47;;;22.60;1.00;;;;;;7369908;19;20339;-68
2022/07/30 07:11:15;;;;;;;6.20;4.90;;;22.50;1.00;;;;;;7369809;19;20476;-67
2022/07/30 07:13:45;;;;;;;8.20;4.55;;;22.50;1.00;;;;;;7360196;19;20395;-67
2022/07/30 07:16:20;;;;;;;7.88;4.32;;;23.20;1.00;;;;;;7369904;19;20491;-66
2022/07/30 07:18:51;;;;;;;6.15;4.15;;;23.10;1.00;;;;;;7391505;19;20018;-65
2022/07/30 07:21:21;;;;;;;7.57;4.05;;;22.60;1.00;;;;;;7370627;19;20097;-66
2022/07/30 07:23:53;;;;;;;6.50;4.13;;;23.00;1.00;;;;;;7359921;19;20010;-66
2022/07/30 07:26:23;;;;;;;6.15;4.03;;;23.40;1.00;;;;;;7368242;19;20010;-67
2022/07/30 07:28:53;;;;;;;6.90;4.53;;;23.10;1.00;;;;;;7368693;19;20482;-68
2022/07/30 07:31:26;;;;;;;6.82;4.35;;;23.20;1.00;;;;;;7369478;19;20089;-66
2022/07/30 07:34:17;;;;;;;8.90;4.28;;;23.30;1.00;;;;;;7359690;19;20018;-67
2022/07/30 07:36:46;;;;;;;5.78;3.72;;;23.10;1.00;;;;;;7389102;19;20414;-67
2022/07/30 07:39:16;;;;;;;6.95;4.38;;;23.40;1.00;;;;;;7368420;19;20014;-66
2022/07/30 07:41:46;;;;;;;5.80;4.35;;;23.20;1.00;;;;;;7368898;19;20720;-66
2022/07/30 07:44:18;;;;;;;5.07;3.97;;;23.20;1.00;;;;;;7360221;19;20014;-67
2022/07/30 07:46:50;;;;;;;7.07;4.30;;;23.60;1.00;;;;;;7369357;19;20011;-66
2022/07/30 07:49:20;;;;;;;5.70;3.92;;;23.60;1.00;;;;;;7368473;19;20015;-65
2022/07/30 07:51:50;;;;;;;23.75;5.47;;;23.50;1.00;;;;;;7388481;19;20006;-66
2022/07/30 07:54:20;;;;;;;6.13;4.75;;;23.10;1.00;;;;;;7359376;19;20002;-66
2022/07/30 07:56:54;;;;;;;6.13;3.75;;;23.10;1.00;;;;;;7366089;19;20490;-67
2022/07/30 07:59:25;;;;;;;8.13;4.38;;;23.70;1.00;;;;;;7367001;19;20080;-66
2022/07/30 08:02:11;;;;;;;4.83;4.07;;;23.40;1.00;;;;;;7365689;19;20011;-68
2022/07/30 08:04:41;;;;;;;7.30;3.78;;;23.20;1.00;;;;;;7362979;19;20232;-67
2022/07/30 08:07:11;;;;;;;6.53;3.60;;;23.70;1.00;;;;;;7366344;19;20018;-67
2022/07/30 08:09:41;;;;;;;8.25;4.05;;;23.50;1.00;;;;;;7389276;19;20466;-68
2022/07/30 08:12:13;;;;;;;6.13;4.05;;;23.50;1.00;;;;;;7363195;19;20023;-68
2022/07/30 08:14:43;;;;;;;6.50;3.65;;;23.80;1.00;;;;;;7362289;19;20038;-67
2022/07/30 08:17:16;;;;;;;6.80;4.05;;;23.90;1.00;;;;;;7368396;19;20462;-67
2022/07/30 08:19:46;;;;;;;5.55;3.88;;;23.60;1.00;;;;;;7365440;19;20075;-68
2022/07/30 08:22:16;;;;;;;5.82;3.88;;;23.50;1.00;;;;;;7365335;19;20029;-67
2022/07/30 08:24:49;;;;;;;7.47;5.57;;;24.00;1.00;;;;;;7384916;19;20021;-68
2022/07/30 08:27:19;;;;;;;6.82;4.57;;;23.50;1.00;;;;;;7365023;19;20038;-68
2022/07/30 08:29:49;;;;;;;5.88;3.90;;;23.70;1.00;;;;;;7366892;19;20489;-68
2022/07/30 08:32:22;;;;;;;8.23;3.50;;;23.80;1.00;;;;;;7363566;19;20006;-67
2022/07/30 08:34:52;;;;;;;5.53;3.00;;;24.50;1.00;;;;;;7363824;19;20078;-67
2022/07/30 08:37:22;;;;;;;9.52;3.30;;;24.30;1.00;;;;;;7367228;19;20012;-67
2022/07/30 08:39:52;;;;;;;7.75;3.70;;;24.60;1.00;;;;;;7388800;19;20003;-67
2022/07/30 08:42:22;;;;;;;4.00;3.08;;;24.40;1.00;;;;;;7362015;19;20010;-67
2022/07/30 08:44:55;;;;;;;5.75;3.58;;;24.70;1.00;;;;;;7362269;19;20070;-67
2022/07/30 08:47:34;;;;;;;5.55;4.32;;;24.60;1.00;;;;;;7365573;19;20351;-67
2022/07/30 08:50:05;;;;;;;5.45;3.97;;;24.70;1.00;;;;;;7365608;19;20464;-69
2022/07/30 08:52:38;;;;;;;6.22;3.30;;;24.60;1.00;;;;;;7361029;19;20010;-66
2022/07/30 08:55:09;;;;;;;8.10;3.10;;;24.30;1.00;;;;;;7363322;19;20014;-67
2022/07/30 08:57:39;;;;;;;3.45;2.80;;;24.50;1.00;;;;;;7386480;19;20007;-68
2022/07/30 09:00:11;;;;;;;4.20;3.15;;;25.30;1.00;;;;;;7365695;19;20090;-67
2022/07/30 09:02:44;;;;;;;5.97;4.03;;;24.80;1.00;;;;;;7361161;19;20093;-67
2022/07/30 09:05:14;;;;;;;5.05;3.72;;;25.40;1.00;;;;;;7364182;19;20010;-67
2022/07/30 09:07:44;;;;;;;4.57;3.20;;;25.50;1.00;;;;;;7365720;19;20086;-67
2022/07/30 09:10:16;;;;;;;4.97;3.30;;;25.00;1.00;;;;;;7366261;19;20015;-66
2022/07/30 09:12:47;;;;;;;11.85;4.43;;;25.60;1.00;;;;;;7380686;19;20027;-67
2022/07/30 09:15:19;;;;;;;5.30;3.80;;;25.40;1.00;;;;;;7361688;19;20002;-66
2022/07/30 09:17:56;;;;;;;6.60;3.17;;;24.60;1.00;;;;;;7366176;19;20393;-65
2022/07/30 09:20:28;;;;;;;3.72;3.33;;;25.00;1.00;;;;;;7366461;19;20455;-66
2022/07/30 09:23:00;;;;;;;4.15;3.13;;;25.50;1.00;;;;;;7360290;19;20015;-66
2022/07/30 09:25:41;;;;;;;4.30;3.40;;;25.40;1.00;;;;;;7362571;19;20018;-68
2022/07/30 09:28:13;;;;;;;9.43;3.75;;;25.10;1.00;;;;;;7365412;19;20007;-66
2022/07/30 09:30:47;;;;;;;4.80;2.63;;;24.90;1.00;;;;;;7388904;19;20077;-68
2022/07/30 09:33:34;;;;;;;4.35;3.03;;;25.10;1.00;;;;;;7358790;19;20023;-68
2022/07/30 09:36:08;;;;;;;4.70;2.60;;;25.40;1.00;;;;;;7364633;19;20522;-67
2022/07/30 09:38:46;;;;;;;4.53;3.40;;;26.20;1.00;;;;;;7364748;19;20003;-66
2022/07/30 09:41:17;;;;;;;3.97;2.75;;;25.60;1.00;;;;;;7366200;19;20474;-66
2022/07/30 09:44:07;;;;;;;4.53;2.83;;;25.70;1.00;;;;;;7354475;19;20081;-66
2022/07/30 09:46:46;;;;;;;5.75;2.65;;;25.70;1.00;;;;;;7365633;19;19999;-67
2022/07/30 09:49:20;;;;;;;6.00;3.20;;;26.00;1.00;;;;;;7365404;19;20034;-66
2022/07/30 09:51:51;;;;;;;;;;;26.20;1.00;;;;;;7388295;19;20015;-66
2022/07/30 09:54:25;;;;;;;;;;;25.80;1.00;;;;;;7354775;19;19925;-67
2022/07/30 09:57:09;;;;;;;4.82;2.75;;;26.40;1.00;;;;;;7365479;19;19970;-66
2022/07/30 09:59:56;;;;;;;4.35;2.53;;;25.50;1.00;;;;;;7371887;19;20011;-66
2022/07/30 10:02:33;;;;;;;5.53;2.83;;;25.00;1.00;;;;;;7367401;19;20021;-66
2022/07/30 10:05:18;;;;;;;3.67;2.20;;;25.50;1.00;;;;;;7368725;19;20010;-67
2022/07/30 10:07:53;;;;;;;4.40;2.70;;;25.80;1.00;;;;;;7373031;19;20018;-68
2022/07/30 10:10:26;;;;;;;3.00;2.30;;;25.10;1.00;;;;;;7370474;19;20010;-66
2022/07/30 10:12:59;;;;;;;4.43;2.22;;;25.50;1.00;;;;;;7387931;19;20017;-66
2022/07/30 10:15:35;;;;;;;4.72;2.70;;;25.60;1.00;;;;;;7367753;19;20093;-66
2022/07/30 10:18:06;;;;;;;3.75;2.75;;;26.10;1.00;;;;;;7371359;19;20076;-68
2022/07/30 10:20:40;;;;;;;8.38;3.47;;;26.40;1.00;;;;;;7371555;19;20041;-67
2022/07/30 10:23:10;;;;;;;5.97;3.00;;;25.50;1.00;;;;;;7367404;19;20114;-68
2022/07/30 10:25:49;;;;;;;5.45;2.65;;;25.80;1.00;;;;;;7367465;19;20130;-67
2022/07/30 10:28:25;;;;;;;2.70;2.47;;;25.80;1.00;;;;;;7370354;19;20043;-67
2022/07/30 10:30:56;;;;;;;3.00;2.40;;;26.00;1.00;;;;;;7393286;19;20014;-68
2022/07/30 10:33:30;;;;;;;2.13;1.92;;;26.20;1.00;;;;;;7361938;19;20011;-67
2022/07/30 10:36:13;;;;;;;3.72;2.53;;;26.80;1.00;;;;;;7368975;19;20027;-67
2022/07/30 10:38:49;;;;;;;4.53;2.72;;;27.00;1.00;;;;;;7370135;19;20003;-67
2022/07/30 10:41:33;;;;;;;6.22;2.78;;;26.20;1.00;;;;;;7370560;19;20085;-68
2022/07/30 10:44:35;;;;;;;6.45;2.38;;;26.30;1.00;;;;;;7361735;19;20506;-68
2022/07/30 10:47:08;;;;;;;6.40;3.00;;;26.30;1.00;;;;;;7369082;19;20017;-69
2022/07/30 10:49:39;;;;;;;3.42;2.47;;;26.20;1.00;;;;;;7370220;19;20006;-69
2022/07/30 10:52:15;;;;;;;4.68;2.47;;;26.60;1.00;;;;;;7371112;19;20010;-68
2022/07/30 10:54:46;;;;;;;4.80;2.38;;;27.20;1.00;;;;;;7390511;19;20014;-65
2022/07/30 10:57:19;;;;;;;5.40;2.30;;;26.40;1.00;;;;;;7365842;19;20014;-68
2022/07/30 11:00:24;;;;;;;2.38;2.17;;;26.70;1.00;;;;;;7370246;19;20007;-68
2022/07/30 11:03:22;;;;;;;5.35;2.80;;;26.70;1.00;;;;;;7366895;19;20006;-67
2022/07/30 11:06:29;;;;;;;4.03;2.50;;;25.30;1.00;;;;;;7363266;19;20011;-67
2022/07/30 11:09:02;;;;;;;3.92;2.60;;;25.40;1.00;;;;;;7367907;19;20497;-67
2022/07/30 11:11:46;;;;;;;6.40;3.33;;;25.90;1.00;;;;;;7371247;19;20007;-69
2022/07/30 11:15:00;;;;;;;4.60;2.67;;;26.10;1.00;;;;;;7368533;19;20085;-67
2022/07/30 11:18:07;;;;;;;4.90;2.03;;;25.40;1.00;;;;;;7368230;19;20036;-67
2022/07/30 11:20:43;;;;;;;2.83;1.77;;;26.30;1.00;;;;;;7369519;19;20009;-67
2022/07/30 11:23:47;;;;;;;3.08;2.15;;;26.30;1.00;;;;;;7367303;19;20084;-67
2022/07/30 11:27:02;;;;;;;2.90;1.80;;;26.50;1.00;;;;;;7360884;19;20014;-66
2022/07/30 11:29:42;;;;;;;9.43;1.92;;;26.40;1.00;;;;;;7367958;19;20025;-67
2022/07/30 11:32:26;;;;;;;2.13;1.70;;;26.60;1.00;;;;;;7365871;19;20015;-66
2022/07/30 11:35:14;;;;;;;3.70;1.77;;;26.80;1.00;;;;;;7367657;19;20063;-67
2022/07/30 11:38:06;;;;;;;4.20;2.05;;;27.20;1.00;;;;;;7366431;19;20065;-67
2022/07/30 11:40:38;;;;;;;7.32;1.95;;;27.60;1.00;;;;;;7369029;19;20027;-67
2022/07/30 11:43:24;;;;;;;2.38;1.55;;;27.00;1.00;;;;;;7366674;19;20412;-67
2022/07/30 11:46:12;;;;;;;2.80;1.77;;;26.90;1.00;;;;;;7363761;19;20014;-67
2022/07/30 11:48:57;;;;;;;3.13;1.83;;;26.80;1.00;;;;;;7391040;19;20010;-67
2022/07/30 11:51:28;;;;;;;3.15;1.63;;;27.70;1.00;;;;;;7369900;19;20023;-67
2022/07/30 11:54:04;;;;;;;6.00;2.03;;;27.70;1.00;;;;;;7365216;19;20081;-67
2022/07/30 11:56:35;;;;;;;7.10;1.70;;;27.40;1.00;;;;;;7363358;19;20010;-66
2022/07/30 11:59:07;;;;;;;3.95;2.03;;;27.40;1.00;;;;;;7368656;19;20028;-67
2022/07/30 12:01:40;;;;;;;3.78;1.88;;;27.80;1.00;;;;;;7368206;19;20011;-66
2022/07/30 12:04:10;;;;;;;3.10;1.80;;;26.60;1.00;;;;;;7366850;19;20420;-68
2022/07/30 12:06:46;;;;;;;1.77;1.60;;;27.30;1.00;;;;;;7384915;19;20013;-68
2022/07/30 12:09:27;;;;;;;3.97;2.05;;;27.60;1.00;;;;;;7367068;19;20046;-67
2022/07/30 12:11:58;;;;;;;3.30;2.00;;;27.60;1.00;;;;;;7368571;19;20013;-68
2022/07/30 12:14:38;;;;;;;2.85;1.92;;;27.60;1.00;;;;;;7367177;19;20010;-68
2022/07/30 12:17:11;;;;;;;3.03;2.10;;;28.00;1.00;;;;;;7362898;19;20474;-66
2022/07/30 12:19:46;;;;;;;6.22;1.90;;;27.70;1.00;;;;;;7366641;19;20715;-67
2022/07/30 12:22:18;;;;;;;3.47;1.80;;;27.80;1.00;;;;;;7365210;19;20025;-67
2022/07/30 12:24:48;;;;;;;3.13;1.92;;;28.00;1.00;;;;;;7389551;19;20082;-67
2022/07/30 12:27:19;;;;;;;7.20;1.83;;;28.70;1.00;;;;;;7361733;19;20003;-67
2022/07/30 12:29:49;;;;;;;3.95;1.90;;;27.90;1.00;;;;;;7367180;19;20074;-67
2022/07/30 12:32:21;;;;;;;6.00;1.90;;;28.30;1.00;;;;;;7365478;19;20010;-67
2022/07/30 12:34:56;;;;;;;4.07;1.90;;;28.40;1.00;;;;;;7367196;19;20010;-67
2022/07/30 12:37:26;;;;;;;1.85;1.65;;;28.50;1.00;;;;;;7362446;19;20518;-67
2022/07/30 12:40:11;;;;;;;3.13;2.05;;;28.10;1.00;;;;;;7387762;19;20013;-67
2022/07/30 12:42:52;;;;;;;2.30;1.80;;;27.70;1.00;;;;;;7364397;19;20011;-68
2022/07/30 12:45:29;;;;;;;2.75;1.70;;;28.40;1.00;;;;;;7360735;19;20009;-68
2022/07/30 12:48:21;;;;;;;4.43;1.95;;;29.00;1.00;;;;;;7366733;19;20415;-67
2022/07/30 12:51:06;;;;;;;3.30;2.13;;;27.70;1.00;;;;;;7366660;19;20014;-67
2022/07/30 12:53:37;;;;;;;1.60;1.40;;;28.00;1.00;;;;;;7364151;19;20018;-65
2022/07/30 12:56:14;;;;;;;3.30;2.00;;;28.90;1.00;;;;;;7360224;19;20093;-67
2022/07/30 12:58:47;;;;;;;7.22;2.30;;;28.40;1.00;;;;;;7366318;19;20393;-67
2022/07/30 13:01:19;;;;;;;5.25;1.85;;;28.50;1.00;;;;;;7366227;19;20008;-68
2022/07/30 13:04:06;;;;;;;7.43;2.00;;;28.90;1.00;;;;;;7386275;19;20034;-68
2022/07/30 13:06:36;;;;;;;2.53;1.92;;;28.80;1.00;;;;;;7360710;19;20006;-67
2022/07/30 13:09:07;;;;;;;4.25;1.88;;;28.60;1.00;;;;;;7363914;19;20022;-67
2022/07/30 13:11:42;;;;;;;3.13;2.03;;;28.60;1.00;;;;;;7367476;19;20010;-67
2022/07/30 13:14:18;;;;;;;4.15;2.03;;;28.10;1.00;;;;;;7363789;19;20003;-67
2022/07/30 13:17:02;;;;;;;3.83;1.95;;;28.50;1.00;;;;;;7361184;19;20015;-68
2022/07/30 13:19:36;;;;;;;3.53;2.00;;;28.50;1.00;;;;;;7364939;19;20010;-67
2022/07/30 13:22:05;;;;;;;2.55;2.08;;;29.20;1.00;;;;;;7366629;19;20043;-68
2022/07/30 13:24:35;;;;;;;4.18;2.05;;;28.30;1.00;;;;;;7387298;19;20015;-66
2022/07/30 13:27:05;;;;;;;3.83;1.90;;;28.60;1.00;;;;;;7356363;19;20054;-67
2022/07/30 13:29:36;;;;;;;5.35;1.98;;;28.90;1.00;;;;;;7362312;19;20018;-68
2022/07/30 13:32:06;;;;;;;3.35;1.60;;;29.10;1.00;;;;;;7362393;19;20031;-66
2022/07/30 13:34:40;;;;;;;3.25;1.80;;;28.40;1.00;;;;;;7362782;19;20014;-68
2022/07/30 13:37:10;;;;;;;4.35;2.00;;;28.10;1.00;;;;;;7355920;19;20010;-69